Accueil
METAR-TAF:

METAR-TAF

Aéroports :

Aéroport international de Djerba-Zarzis

Djerba, Tunisie

latitude: 33-52N, longitude: 010-46E, altitude: 3 m

Observation

Le bulletin a été fait il y a 25 minutes, à 11:00 UTC
Vent 16 kt de sud-est
Température 18°C
Humidité 42%
Pression 1022 hPa
Visibilité 10 km ou plus
Nuages épars à une hauteur de 3300 ft

METAR: DTTJ 201100Z 13016KT 9999 SCT033 18/05 Q1022 NOSIG

Heure: 12:25 (11:25 UTC)

Prévision

Le bulletin a été fait il y a 6 heures et 25 minutes, à 05:00 UTC
Prévision valable du 20 à 06 UTC au 21 à 06 UTC
Vent 10 kt de sud-est
Visibilité 10 km ou plus
Quelques nuages à une hauteur de 2600 ft
Evoluant progressivement
du 20 à 10 UTC au 20 à 12 UTC
Vent 20 kt de est/sud-est avec des rafales jusqu'à 32 kt

TAF: DTTJ 200500Z 2006/2106 14010KT 9999 FEW026 BECMG 2010/2012 12020G32KT

Observations et prévisions météorologiques de plus de 4000 aéroports (messages METAR et TAF).

Les stations disponibles sont représentées par des disques jaunes et rouges sur la carte.

Passer la souris dessus pour voir le nom de la station.

Cliquer dessus pour voir les observations et prévisions météorologiques.

Pour changer de carte: cliquez sur les boutons verts avec une croix noire pour zoomer, sur le bouton vert avec un tiret pour effectuer un zoom arrière, ou sur les flèches vertes pour les cartes adjacentes.


METAR-TAF: